• Join FlightAware (Why Join?)
  • Login
  • US Flag 
11:10PM EDT


 

Airport Tracker/Info


-or-


 

Live Flight TrackerFlight Track Log ✈ SWA1046 ✈ 09-May-2013 ✈ KSTL - KDAL

Flight Track Log - Related Links

Times and Time Zones

All times are in EDT time to prevent confusion due to time zone crossing. See the SWA1046 flight status page for this flight to view local times or setup timezone preferences in your user account.

Time Position Orientation Groundspeed Altitude Reporting Facility
EDT Latitude Longitude Course Direction KTS MPH feet Rate Location/Type
02:16PM 38.7400 -90.4250 243° Southwest 191 220 3,700  Level Kansas City Center
02:17PM 38.6869 -90.4753 216° Southwest 206 237 7,000 3,420 Climbing Kansas City Center
02:18PM 38.6397 -90.5331 224° Southwest 232 267 10,800 3,180 Climbing Kansas City Center
02:19PM 38.5844 -90.6022 224° Southwest 270 311 13,600 3,060 Climbing Kansas City Center
02:20PM 38.5111 -90.6889 223° Southwest 302 348 17,100 2,820 Climbing Kansas City Center
02:21PM 38.3843 -90.7814 238° Southwest  Level FlightAware Approximate
02:21PM 38.4550 -90.7572 224° Southwest 324 373 19,400  Level Kansas City Center
02:22PM 38.3689 -90.8614 223° Southwest 350 403 22,900 2,760 Climbing Kansas City Center
02:23PM 38.2958 -90.9489 223° Southwest 358 412 25,200 2,160 Climbing Kansas City Center
02:24PM 38.2189 -91.0425 224° Southwest 371 427 27,400 2,220 Climbing Kansas City Center
02:25PM 38.1428 -91.1336 223° Southwest 374 430 29,900 1,200 Climbing Kansas City Center
02:26PM 38.0697 -91.2242 224° Southwest 368 423 30,000  Climbing Kansas City Center
02:27PM 37.9839 -91.3247 223° Southwest 395 455 30,000  Level Kansas City Center
02:28PM 37.8817 -91.4450 223° Southwest 411 473 30,000  Level Kansas City Center
02:29PM 37.7958 -91.5447 223° Southwest 415 478 30,000  Level Kansas City Center
02:30PM 37.7139 -91.6425 223° Southwest 407 468 30,000  Level Kansas City Center
02:31PM 37.6314 -91.7403 223° Southwest 404 465 30,000  Level Kansas City Center
02:32PM 37.5500 -91.8364 223° Southwest 401 461 30,000  Level Kansas City Center
02:34PM 37.4664 -91.9336 223° Southwest 403 464 30,000  Level Kansas City Center
02:35PM 37.3781 -92.0375 223° Southwest 425 489 30,000  Level Kansas City Center
02:36PM 37.2908 -92.1386 223° Southwest 427 491 30,000 240 Level Kansas City Center
02:37PM 37.2017 -92.2392 222° Southwest 425 489 30,600 1,620 Climbing Kansas City Center
02:38PM 37.0947 -92.3664 224° Southwest 435 501 33,400 2,580 Climbing Kansas City Center
02:39PM 37.0144 -92.4589 223° Southwest 406 467 36,000 1,200 Climbing Kansas City Center
02:40PM 36.9347 -92.5486 222° Southwest 389 448 36,000  Level Kansas City Center
02:40PM 36.8697 -92.6236 223° Southwest 396 456 36,000  Level Memphis Center
02:41PM 36.7867 -92.7169 222° Southwest 396 456 36,000 600 Level Memphis Center
02:42PM 36.7036 -92.8131 223° Southwest 396 456 37,200 960 Climbing Memphis Center
02:43PM 36.6206 -92.9061 222° Southwest 396 456 38,000 360 Climbing Memphis Center
02:44PM 36.5392 -93.0017 223° Southwest 401 461 38,000  Level Memphis Center
02:45PM 36.4558 -93.0944 222° Southwest 401 461 38,000  Level Memphis Center
02:46PM 36.3747 -93.1844 222° Southwest 401 461 38,000  Level Memphis Center
02:47PM 36.2933 -93.2769 223° Southwest 401 461 38,000  Level Memphis Center
02:48PM 36.2100 -93.3692 222° Southwest 401 461 38,000  Level Memphis Center
02:49PM 36.1306 -93.4561 221° Southwest 396 456 38,000  Level Memphis Center
02:50PM 36.0533 -93.5431 222° Southwest 391 450 38,000 -240 Level Memphis Center
02:51PM 35.9803 -93.6222 221° Southwest 381 438 37,600 -960 Descending Memphis Center
02:52PM 35.9053 -93.7039 221° Southwest 368 423 36,100 -1,320 Descending Memphis Center
02:53PM 35.8322 -93.7881 223° Southwest 363 418 35,000 -600 Descending Memphis Center
02:54PM 35.7569 -93.8694 221° Southwest 363 418 35,000 -660 Level Memphis Center
02:55PM 35.6836 -93.9481 221° Southwest 363 418 33,700 -1,380 Descending Memphis Center
02:56PM 35.6125 -94.0292 223° Southwest 369 425 32,300 -1,500 Descending Memphis Center
02:57PM 35.5308 -94.1150 221° Southwest 380 437 30,800 -1,200 Descending Memphis Center
02:58PM 35.4531 -94.2031 223° Southwest 386 444 30,000 -420 Descending Memphis Center
02:59PM 35.3689 -94.2933 221° Southwest 394 453 30,000  Level Memphis Center
03:00PM 35.2847 -94.3786 220° Southwest 394 453 30,000  Level Memphis Center
03:01PM 35.2044 -94.4686 223° Southwest 394 453 30,000  Level Memphis Center
03:03PM 35.0564 -94.6389 223° Southwest 393 452 30,000  Level Fort Worth Center
03:04PM 34.9769 -94.7225 221° Southwest 386 444 30,000 -300 Level Fort Worth Center
03:05PM 34.8975 -94.8061 221° Southwest 381 438 29,500 -840 Descending Fort Worth Center
03:06PM 34.8200 -94.8919 222° Southwest 381 438 28,400 -780 Descending Fort Worth Center
03:07PM 34.7442 -94.9725 221° Southwest 381 438 28,000 -240 Descending Fort Worth Center
03:08PM 34.6686 -95.0503 220° Southwest 370 426 28,000  Level Fort Worth Center
03:09PM 34.5992 -95.1253 222° Southwest 363 418 28,000  Level Fort Worth Center
03:10PM 34.5317 -95.2003 222° Southwest 347 399 28,000 -540 Level Fort Worth Center
03:11PM 34.4661 -95.2800 225° Southwest 335 386 27,000 -540 Descending Fort Worth Center
03:12PM 34.4194 -95.3644 236° Southwest 318 366 27,000  Level Fort Worth Center
03:13PM 34.3731 -95.4536 238° Southwest 318 366 27,000 -60 Level Fort Worth Center
03:14PM 34.3264 -95.5450 238° Southwest 318 366 26,900 -600 Descending Fort Worth Center
03:15PM 34.2736 -95.6442 237° Southwest 324 373 25,800 -1,020 Descending Fort Worth Center
03:16PM 34.2289 -95.7331 239° Southwest 324 373 24,900 -1,440 Descending Fort Worth Center
03:17PM 34.1822 -95.8244 238° Southwest 324 373 23,000 -960 Descending Fort Worth Center
03:18PM 34.1350 -95.9081 236° Southwest 324 373 23,000 -1,200 Level Fort Worth Center
03:19PM 34.0503 -95.9594 207° Southwest 313 360 20,700 -2,700 Descending Fort Worth Center
03:20PM 33.9631 -96.0061 204° Southwest 327 376 17,600 -2,640 Descending Fort Worth Center
03:21PM 33.8739 -96.0525 203° Southwest 347 399 15,500 -2,700 Descending Fort Worth Center
03:22PM 33.7889 -96.0989 204° Southwest 347 399 12,300 -2,760 Descending Fort Worth Center
03:23PM 33.7122 -96.1700 218° Southwest 342 394 10,000 -1,200 Descending Fort Worth Center
03:24PM 33.6525 -96.2356 222° Southwest 319 367 9,900  Descending Fort Worth Center
03:25PM 33.5817 -96.2567 194° South 270 311 10,000  Climbing Fort Worth Center
03:26PM 33.5044 -96.2750 191° South 277 319 9,900 -60 Descending Fort Worth Center
03:27PM 33.4317 -96.2933 192° South 277 319 9,900  Level Fort Worth Center
03:28PM 33.3672 -96.3092 192° South 271 312 9,900 -540 Level Fort Worth Center
03:29PM 33.2858 -96.3300 192° South 276 318 8,900 -780 Descending Fort Worth Center
03:30PM 33.2383 -96.3753 219° Southwest 261 300 8,400 -840 Descending Fort Worth Center
03:31PM 33.1889 -96.4503 232° Southwest 256 295 7,300 -1,200 Descending Fort Worth Center
03:32PM 33.1578 -96.5128 239° Southwest 256 295 6,000 -1,500 Descending Fort Worth Center
03:33PM 33.1292 -96.5925 247° West 256 295 4,300 -1,140 Descending Fort Worth Center
03:34PM 33.1006 -96.6719 247° West 250 288 3,800 -720 Descending Fort Worth Center
03:35PM 33.0694 -96.7417 242° Southwest 244 281 2,900 -480 Descending Fort Worth Center
03:36PM 33.0386 -96.8064 240° Southwest 234 269 2,900  Level Fort Worth Center
03:37PM 33.0056 -96.8686 238° Southwest 227 261 2,900 -360 Level Fort Worth Center
03:38PM 33.0000 -96.8833 246° West 228 262 2,500 -900 Descending Dallas / Fort Worth TRACON
03:38PM 32.9667 -96.9333 232° Southwest 212 244 1,900 -300 Descending Dallas / Fort Worth TRACON
03:40PM 32.9167 -96.9333 180° South 191 220 2,000 -360 Climbing Dallas / Fort Worth TRACON
03:40PM 32.8833 -96.9000 140° Southeast 163 188 1,200 -900 Descending Dallas / Fort Worth TRACON
03:43PM 32.8471 -96.8518 188° South  Level Estimated
03:50PM 32.8471 -96.8518 188° South  Level Estimated